createdAt,value
2023-05-10T00:01:24.317Z,54.04
2023-05-10T00:03:52.358Z,54.06
2023-05-10T00:06:20.395Z,54.00
2023-05-10T00:08:48.252Z,54.31
2023-05-10T00:11:16.311Z,54.69
2023-05-10T00:13:44.255Z,54.82
2023-05-10T00:16:14.205Z,55.15
2023-05-10T00:18:42.484Z,55.21
2023-05-10T00:21:10.909Z,55.64
2023-05-10T00:23:38.826Z,55.31
2023-05-10T00:26:06.826Z,55.77
2023-05-10T00:28:34.743Z,56.22
2023-05-10T00:31:02.633Z,56.72
2023-05-10T00:33:31.933Z,56.91
2023-05-10T00:35:59.887Z,56.75
2023-05-10T00:38:29.022Z,56.84
2023-05-10T00:40:57.069Z,56.88
2023-05-10T00:43:25.209Z,56.62
2023-05-10T00:45:53.171Z,56.84
2023-05-10T00:48:22.025Z,57.38
2023-05-10T00:50:52.313Z,57.14
2023-05-10T00:53:20.954Z,57.22
2023-05-10T00:55:49.060Z,57.20
2023-05-10T00:58:17.346Z,57.27
2023-05-10T01:00:49.608Z,57.47
2023-05-10T01:03:18.260Z,58.01
2023-05-10T01:05:46.396Z,58.09
2023-05-10T01:08:15.794Z,58.21
2023-05-10T01:10:45.020Z,58.25
2023-05-10T01:13:14.674Z,58.60
2023-05-10T01:15:43.183Z,58.46
2023-05-10T01:18:11.592Z,58.67
2023-05-10T01:20:49.993Z,58.84
2023-05-10T01:23:46.062Z,59.24
2023-05-10T01:26:29.554Z,58.60
2023-05-10T01:29:32.507Z,59.39
2023-05-10T01:32:29.370Z,59.02
2023-05-10T01:35:04.746Z,59.44
2023-05-10T01:37:47.957Z,59.41
2023-05-10T01:40:21.996Z,59.02
2023-05-10T01:42:53.936Z,59.07
2023-05-10T01:45:29.478Z,59.50
2023-05-10T01:48:07.893Z,59.80
2023-05-10T01:50:38.414Z,59.50
2023-05-10T01:53:10.187Z,60.06
2023-05-10T01:55:47.495Z,60.57
2023-05-10T01:58:19.365Z,60.47
2023-05-10T02:00:48.618Z,60.27
2023-05-10T02:03:18.477Z,60.39
2023-05-10T02:05:49.034Z,60.62
2023-05-10T02:08:20.065Z,60.74
2023-05-10T02:10:50.041Z,60.77
2023-05-10T02:13:18.891Z,60.92
2023-05-10T02:15:49.549Z,60.54
2023-05-10T02:18:20.125Z,61.00
2023-05-10T02:20:49.256Z,60.97
2023-05-10T02:23:19.897Z,60.96
2023-05-10T02:25:50.307Z,61.09
2023-05-10T02:28:20.314Z,60.95
2023-05-10T02:30:49.672Z,60.83
2023-05-10T02:33:20.543Z,60.67
2023-05-10T02:35:49.938Z,60.68
2023-05-10T02:38:19.115Z,60.84
2023-05-10T02:40:49.172Z,61.04
2023-05-10T02:43:19.145Z,61.43
2023-05-10T02:45:50.037Z,61.61
2023-05-10T02:48:19.857Z,61.22
2023-05-10T02:50:52.466Z,61.37
2023-05-10T02:53:25.199Z,61.87
2023-05-10T02:55:54.869Z,61.59
2023-05-10T02:58:24.064Z,61.43
2023-05-10T03:00:52.021Z,62.16
2023-05-10T03:03:22.132Z,61.73
2023-05-10T03:05:49.962Z,61.86
2023-05-10T03:08:18.211Z,62.30
2023-05-10T03:11:01.967Z,62.36
2023-05-10T03:13:38.596Z,61.90
2023-05-10T03:16:12.753Z,61.74
2023-05-10T03:18:45.912Z,62.13
2023-05-10T03:21:16.394Z,62.04
2023-05-10T03:23:48.570Z,61.83
2023-05-10T03:26:26.670Z,62.36
2023-05-10T03:28:55.674Z,61.87
2023-05-10T03:31:23.961Z,62.14
2023-05-10T03:33:54.488Z,61.75
2023-05-10T03:36:22.413Z,61.47
2023-05-10T03:38:50.442Z,61.71
2023-05-10T03:41:18.343Z,62.25
2023-05-10T03:43:46.647Z,62.33
2023-05-10T03:46:14.605Z,61.70
2023-05-10T03:48:42.464Z,61.34
2023-05-10T03:51:11.781Z,61.33
2023-05-10T03:53:39.729Z,61.24
2023-05-10T03:56:07.820Z,61.40
2023-05-10T03:58:35.788Z,60.99
2023-05-10T04:01:03.721Z,60.72
2023-05-10T04:03:31.762Z,60.97
2023-05-10T04:06:03.237Z,60.79
2023-05-10T04:08:33.324Z,60.44
2023-05-10T04:11:08.243Z,60.73
2023-05-10T04:13:36.187Z,60.05
2023-05-10T04:16:04.476Z,60.22
2023-05-10T04:18:32.902Z,59.76
2023-05-10T04:21:00.845Z,59.77
2023-05-10T04:23:29.109Z,59.36
2023-05-10T04:26:05.790Z,59.46
2023-05-10T04:28:33.924Z,59.06
2023-05-10T04:31:05.234Z,59.20
2023-05-10T04:33:33.660Z,58.61
2023-05-10T04:36:01.782Z,58.30
2023-05-10T04:38:30.084Z,57.87
2023-05-10T04:41:08.269Z,57.86
2023-05-10T04:43:37.371Z,57.63
2023-05-10T04:46:05.762Z,57.46
2023-05-10T04:48:33.734Z,57.28
2023-05-10T04:51:02.003Z,57.12
2023-05-10T04:53:29.858Z,56.62
2023-05-10T04:55:59.804Z,56.75
2023-05-10T04:58:29.215Z,56.19
2023-05-10T05:00:57.131Z,56.07
2023-05-10T05:03:25.236Z,55.91
2023-05-10T05:05:53.410Z,55.41
2023-05-10T05:08:22.259Z,55.44
2023-05-10T05:10:51.285Z,55.03
2023-05-10T05:13:19.550Z,55.05
2023-05-10T05:15:48.942Z,54.63
2023-05-10T05:18:16.835Z,54.42
2023-05-10T05:20:45.207Z,54.58
2023-05-10T05:23:13.092Z,54.13
2023-05-10T05:25:40.942Z,53.96
2023-05-10T05:28:09.347Z,53.58
2023-05-10T05:30:37.299Z,53.38
2023-05-10T05:33:06.543Z,53.22
2023-05-10T05:35:34.636Z,52.97
2023-05-10T05:38:02.543Z,52.67
2023-05-10T05:40:30.465Z,52.58
2023-05-10T05:42:58.516Z,52.75
2023-05-10T05:45:26.645Z,52.48
2023-05-10T05:47:57.108Z,52.05
2023-05-10T05:50:26.488Z,51.75
2023-05-10T05:52:56.419Z,51.88
2023-05-10T05:55:27.113Z,51.61
2023-05-10T05:57:55.313Z,51.41
2023-05-10T06:00:23.612Z,51.37
2023-05-10T06:02:51.636Z,51.29
2023-05-10T06:05:19.766Z,50.81
2023-05-10T06:07:50.016Z,50.85
2023-05-10T06:10:22.728Z,50.33
2023-05-10T06:12:50.643Z,50.11
2023-05-10T06:15:18.935Z,49.81
2023-05-10T06:17:48.373Z,49.75
2023-05-10T06:20:16.424Z,49.63
2023-05-10T06:22:44.309Z,49.24
2023-05-10T06:25:15.507Z,49.15
2023-05-10T06:27:44.085Z,48.73
2023-05-10T06:30:14.437Z,48.74
2023-05-10T06:32:42.849Z,48.69
2023-05-10T06:35:11.521Z,48.26
2023-05-10T06:37:39.510Z,48.04
2023-05-10T06:40:08.999Z,47.70
2023-05-10T06:42:38.989Z,47.43
2023-05-10T06:45:07.971Z,47.54
2023-05-10T06:47:38.679Z,47.07
2023-05-10T06:50:08.005Z,47.13
2023-05-10T06:52:37.653Z,46.73
2023-05-10T06:55:07.222Z,46.73
2023-05-10T06:57:36.663Z,46.68
2023-05-10T07:00:07.719Z,46.62
2023-05-10T07:02:35.748Z,46.52
2023-05-10T07:05:03.994Z,46.12
2023-05-10T07:07:32.384Z,45.84
2023-05-10T07:10:00.306Z,45.28
2023-05-10T07:12:28.415Z,45.15
2023-05-10T07:14:56.584Z,44.93
2023-05-10T07:17:26.163Z,45.10
2023-05-10T07:19:54.125Z,45.27
2023-05-10T07:22:22.121Z,44.49
2023-05-10T07:24:50.194Z,43.80
2023-05-10T07:27:18.080Z,42.46
2023-05-10T07:29:46.263Z,41.27
2023-05-10T07:32:14.240Z,39.86
2023-05-10T07:34:43.649Z,38.66
2023-05-10T07:37:11.934Z,38.81
2023-05-10T07:39:39.753Z,38.07
2023-05-10T07:42:07.771Z,36.80
2023-05-10T07:44:35.771Z,35.73
2023-05-10T07:47:03.604Z,36.17
2023-05-10T07:49:31.494Z,35.60
2023-05-10T07:52:01.686Z,34.40
2023-05-10T07:54:29.671Z,33.77
2023-05-10T07:56:57.558Z,32.74
2023-05-10T07:59:25.918Z,33.25
2023-05-10T08:01:53.800Z,31.96
2023-05-10T08:04:21.686Z,32.49
2023-05-10T08:06:49.820Z,32.58
2023-05-10T08:09:19.274Z,32.04
2023-05-10T08:11:47.090Z,31.65
2023-05-10T08:14:15.147Z,31.79
2023-05-10T08:16:42.973Z,31.42
2023-05-10T08:19:10.864Z,30.29
2023-05-10T08:21:40.041Z,30.58
2023-05-10T08:24:08.323Z,30.55
2023-05-10T08:26:37.555Z,29.85
2023-05-10T08:29:05.584Z,29.72
2023-05-10T08:31:33.629Z,29.04
2023-05-10T08:34:01.638Z,28.91
2023-05-10T08:36:30.108Z,28.02
2023-05-10T08:38:58.722Z,28.07
2023-05-10T08:41:29.839Z,27.95
2023-05-10T08:43:59.857Z,27.91
2023-05-10T08:46:29.588Z,27.66
2023-05-10T08:48:57.920Z,26.38
2023-05-10T08:51:29.152Z,27.14
2023-05-10T08:53:57.550Z,27.59
2023-05-10T08:56:26.101Z,27.83
2023-05-10T08:58:54.378Z,27.46
2023-05-10T09:01:24.656Z,26.98
2023-05-10T09:03:52.989Z,27.67
2023-05-10T09:06:21.017Z,26.77
2023-05-10T09:08:49.672Z,27.19
2023-05-10T09:11:19.505Z,26.85
2023-05-10T09:13:49.820Z,26.84
2023-05-10T09:16:21.889Z,27.31
2023-05-10T09:18:52.133Z,27.43
2023-05-10T09:21:21.774Z,27.10
2023-05-10T09:23:51.332Z,26.30
2023-05-10T09:26:24.079Z,26.15
2023-05-10T09:28:53.661Z,26.43
2023-05-10T09:31:22.187Z,26.42
2023-05-10T09:33:52.636Z,25.15
2023-05-10T09:36:20.583Z,25.79
2023-05-10T09:38:49.980Z,25.43
2023-05-10T09:41:19.641Z,25.89
2023-05-10T09:43:47.735Z,25.31
2023-05-10T09:46:15.915Z,25.47
2023-05-10T09:48:46.028Z,25.64
2023-05-10T09:51:21.465Z,25.62
2023-05-10T09:53:51.629Z,25.93
2023-05-10T09:56:39.977Z,25.51
2023-05-10T09:59:09.118Z,25.51
2023-05-10T10:01:37.110Z,25.17
2023-05-10T10:04:07.216Z,24.71
2023-05-10T10:06:41.449Z,24.92
2023-05-10T10:09:10.219Z,25.10
2023-05-10T10:11:39.974Z,24.87
2023-05-10T10:14:08.480Z,24.63
2023-05-10T10:16:41.453Z,24.54
2023-05-10T10:19:14.881Z,24.21
2023-05-10T10:21:44.092Z,23.91
2023-05-10T10:24:11.948Z,24.49
2023-05-10T10:26:42.745Z,24.71
2023-05-10T10:29:23.656Z,23.72
2023-05-10T10:31:59.753Z,24.31
2023-05-10T10:34:30.048Z,24.35
2023-05-10T10:37:06.327Z,24.44
2023-05-10T10:39:37.905Z,24.63
2023-05-10T10:42:06.530Z,24.61
2023-05-10T10:44:41.755Z,24.86
2023-05-10T10:47:26.042Z,24.53
2023-05-10T10:50:04.841Z,24.28
2023-05-10T10:52:36.030Z,24.45
2023-05-10T10:55:06.486Z,24.19
2023-05-10T10:57:35.713Z,24.35
2023-05-10T11:00:31.976Z,24.23
2023-05-10T11:03:01.703Z,24.50
2023-05-10T11:05:41.449Z,23.99
2023-05-10T11:08:13.600Z,24.13
2023-05-10T11:10:53.163Z,24.11
2023-05-10T11:13:30.674Z,24.25
2023-05-10T11:16:00.127Z,24.39
2023-05-10T11:18:30.792Z,24.20
2023-05-10T11:21:01.015Z,23.68
2023-05-10T11:23:36.536Z,23.92
2023-05-10T11:26:04.468Z,24.32
2023-05-10T11:28:32.617Z,24.05
2023-05-10T11:31:00.671Z,23.81
2023-05-10T11:33:28.598Z,23.72
2023-05-10T11:35:56.512Z,23.39
2023-05-10T11:38:24.425Z,23.74
2023-05-10T11:40:54.466Z,23.48
2023-05-10T11:43:29.224Z,23.51
2023-05-10T11:45:57.575Z,23.64
2023-05-10T11:48:25.584Z,23.34
2023-05-10T11:51:12.454Z,23.23
2023-05-10T11:53:40.674Z,23.28
2023-05-10T11:56:10.170Z,23.31
2023-05-10T11:58:39.425Z,23.53
2023-05-10T12:01:09.212Z,23.25
2023-05-10T12:03:37.924Z,23.19
2023-05-10T12:06:06.812Z,23.33
2023-05-10T12:08:36.342Z,23.00
2023-05-10T12:11:11.425Z,22.85
2023-05-10T12:13:41.316Z,22.80
2023-05-10T12:16:16.381Z,22.44
2023-05-10T12:18:44.615Z,22.26
2023-05-10T12:21:13.708Z,22.49
2023-05-10T12:23:43.742Z,21.98
2023-05-10T12:26:12.168Z,22.32
2023-05-10T12:28:40.589Z,22.47
2023-05-10T12:31:09.344Z,22.62
2023-05-10T12:33:42.687Z,22.72
2023-05-10T12:36:11.490Z,22.54
2023-05-10T12:38:40.918Z,22.79
2023-05-10T12:41:11.653Z,22.85
2023-05-10T12:43:40.340Z,22.58
2023-05-10T12:46:09.823Z,22.57
2023-05-10T12:48:38.309Z,22.29
2023-05-10T12:51:10.391Z,22.44
2023-05-10T12:53:38.488Z,22.23
2023-05-10T12:56:07.083Z,22.18
2023-05-10T12:58:36.460Z,22.16
2023-05-10T13:01:05.944Z,22.30
2023-05-10T13:03:34.046Z,22.37
2023-05-10T13:06:02.058Z,22.38
2023-05-10T13:08:34.327Z,22.30
2023-05-10T13:11:03.036Z,21.94
2023-05-10T13:13:30.954Z,22.17
2023-05-10T13:16:00.187Z,22.19
2023-05-10T13:18:28.365Z,22.26
2023-05-10T13:20:56.826Z,22.22
2023-05-10T13:23:24.730Z,21.81
2023-05-10T13:25:53.075Z,21.88
2023-05-10T13:28:23.266Z,21.69
2023-05-10T13:30:51.185Z,21.67
2023-05-10T13:33:20.693Z,21.68
2023-05-10T13:35:48.574Z,21.47
2023-05-10T13:38:16.414Z,21.48
2023-05-10T13:40:44.496Z,21.28
2023-05-10T13:43:12.372Z,21.13
2023-05-10T13:45:40.228Z,21.04
2023-05-10T13:48:08.282Z,21.26
2023-05-10T13:50:37.619Z,21.14
2023-05-10T13:53:06.476Z,21.15
2023-05-10T13:55:36.620Z,20.53
2023-05-10T13:58:04.550Z,20.36
2023-05-10T14:00:32.959Z,20.84
2023-05-10T14:03:01.772Z,20.44
2023-05-10T14:05:29.936Z,20.49
2023-05-10T14:07:59.326Z,19.95
2023-05-10T14:10:28.239Z,20.28
2023-05-10T14:12:56.408Z,20.30
2023-05-10T14:15:24.524Z,20.58
2023-05-10T14:17:52.837Z,20.06
2023-05-10T14:20:20.729Z,20.18
2023-05-10T14:22:48.552Z,19.87
2023-05-10T14:25:18.088Z,20.07
2023-05-10T14:27:46.071Z,20.32
2023-05-10T14:30:14.762Z,19.58
2023-05-10T14:32:42.761Z,19.83
2023-05-10T14:35:13.054Z,19.93
2023-05-10T14:37:41.874Z,19.90
2023-05-10T14:40:11.001Z,19.49
2023-05-10T14:42:40.364Z,19.64
2023-05-10T14:45:09.826Z,19.21
2023-05-10T14:47:37.990Z,19.28
2023-05-10T14:50:06.683Z,19.48
2023-05-10T14:52:34.572Z,19.34
2023-05-10T14:55:02.858Z,19.48
2023-05-10T14:57:30.866Z,19.27
2023-05-10T15:00:00.135Z,19.42
2023-05-10T15:02:28.955Z,19.69
2023-05-10T15:04:58.469Z,19.24
2023-05-10T15:07:26.844Z,19.41
2023-05-10T15:09:55.280Z,19.47
2023-05-10T15:12:23.355Z,19.89
2023-05-10T15:14:51.212Z,19.88
2023-05-10T15:17:20.584Z,20.10
2023-05-10T15:19:48.532Z,20.09
2023-05-10T15:22:16.372Z,19.97
2023-05-10T15:24:44.338Z,20.04
2023-05-10T15:27:14.549Z,20.31
2023-05-10T15:29:42.484Z,20.26
2023-05-10T15:32:10.548Z,20.15
2023-05-10T15:34:39.983Z,20.44
2023-05-10T15:37:07.820Z,20.18
2023-05-10T15:39:36.001Z,20.49
2023-05-10T15:42:04.799Z,20.88
2023-05-10T15:44:32.725Z,20.72
2023-05-10T15:47:01.053Z,20.50
2023-05-10T15:49:29.001Z,20.96
2023-05-10T15:51:58.254Z,20.68
2023-05-10T15:54:27.036Z,20.74
2023-05-10T15:56:55.206Z,21.25
2023-05-10T15:59:23.304Z,21.10
2023-05-10T16:01:51.769Z,21.00
2023-05-10T16:04:19.758Z,21.46
2023-05-10T16:06:47.656Z,21.91
2023-05-10T16:09:17.215Z,21.54
2023-05-10T16:11:45.455Z,21.84
2023-05-10T16:14:13.359Z,21.93
2023-05-10T16:16:41.477Z,21.58
2023-05-10T16:19:09.370Z,21.86
2023-05-10T16:21:38.118Z,21.69
2023-05-10T16:24:06.374Z,22.00
2023-05-10T16:26:40.653Z,22.31
2023-05-10T16:29:08.976Z,22.46
2023-05-10T16:31:36.875Z,22.19
2023-05-10T16:34:04.828Z,22.25
2023-05-10T16:36:34.264Z,22.10
2023-05-10T16:39:02.732Z,22.46
2023-05-10T16:41:30.633Z,22.64
2023-05-10T16:44:00.705Z,22.40
2023-05-10T16:46:28.790Z,22.09
2023-05-10T16:48:56.625Z,22.16
2023-05-10T16:51:24.648Z,22.28
2023-05-10T16:53:52.487Z,22.38
2023-05-10T16:56:21.829Z,22.31
2023-05-10T16:58:50.383Z,22.15
2023-05-10T17:01:20.049Z,22.93
2023-05-10T17:03:48.096Z,23.14
2023-05-10T17:06:16.471Z,23.28
2023-05-10T17:08:48.553Z,23.61
2023-05-10T17:11:16.499Z,23.95
2023-05-10T17:13:44.625Z,24.52
2023-05-10T17:16:12.809Z,25.00
2023-05-10T17:18:42.780Z,25.40
2023-05-10T17:21:10.865Z,25.68
2023-05-10T17:23:38.734Z,25.95
2023-05-10T17:26:07.317Z,26.05
2023-05-10T17:28:35.296Z,26.77
2023-05-10T17:31:03.334Z,26.69
2023-05-10T17:33:31.274Z,27.23
2023-05-10T17:36:00.578Z,27.43
2023-05-10T17:38:28.418Z,27.79
2023-05-10T17:40:56.340Z,27.86
2023-05-10T17:43:26.139Z,27.99
2023-05-10T17:45:54.327Z,28.26
2023-05-10T17:48:23.108Z,28.33
2023-05-10T17:50:51.204Z,28.57
2023-05-10T17:53:20.735Z,28.79
2023-05-10T17:55:48.689Z,28.63
2023-05-10T17:58:16.578Z,28.66
2023-05-10T18:00:44.529Z,28.91
2023-05-10T18:03:12.765Z,29.15
2023-05-10T18:05:40.852Z,29.03
2023-05-10T18:08:08.781Z,29.08
2023-05-10T18:10:41.236Z,29.05
2023-05-10T18:13:09.631Z,29.28
2023-05-10T18:15:37.594Z,29.49
2023-05-10T18:18:06.093Z,29.56
2023-05-10T18:20:34.276Z,29.54
2023-05-10T18:23:02.621Z,29.69
2023-05-10T18:25:30.575Z,29.70
2023-05-10T18:27:59.813Z,29.96
2023-05-10T18:30:27.752Z,30.01
2023-05-10T18:32:55.755Z,30.14
2023-05-10T18:35:23.732Z,30.35
2023-05-10T18:37:51.884Z,30.43
2023-05-10T18:40:20.008Z,30.59
2023-05-10T18:42:50.056Z,30.71
2023-05-10T18:45:19.994Z,30.88
2023-05-10T18:47:48.415Z,30.93
2023-05-10T18:50:17.164Z,31.14
2023-05-10T18:52:45.577Z,31.17
2023-05-10T18:55:13.773Z,31.47
2023-05-10T18:57:42.519Z,31.66
2023-05-10T19:00:12.688Z,31.93
2023-05-10T19:02:42.319Z,32.13
2023-05-10T19:05:11.002Z,31.97
2023-05-10T19:07:40.573Z,32.41
2023-05-10T19:10:09.246Z,32.46
2023-05-10T19:12:37.561Z,32.77
2023-05-10T19:15:06.470Z,32.71
2023-05-10T19:17:36.921Z,33.11
2023-05-10T19:20:10.504Z,33.42
2023-05-10T19:22:54.107Z,33.30
2023-05-10T19:25:29.427Z,33.25
2023-05-10T19:27:58.622Z,33.71
2023-05-10T19:30:30.272Z,33.68
2023-05-10T19:32:58.444Z,33.68
2023-05-10T19:35:27.843Z,34.07
2023-05-10T19:37:57.832Z,34.05
2023-05-10T19:40:26.152Z,34.27
2023-05-10T19:42:56.874Z,34.50
2023-05-10T19:45:24.704Z,34.52
2023-05-10T19:47:52.853Z,34.90
2023-05-10T19:50:21.078Z,35.29
2023-05-10T19:52:50.910Z,35.76
2023-05-10T19:55:28.182Z,36.00
2023-05-10T19:57:56.169Z,35.57
2023-05-10T20:00:24.379Z,35.99
2023-05-10T20:02:52.268Z,35.75
2023-05-10T20:05:20.229Z,36.05
2023-05-10T20:07:48.163Z,36.39
2023-05-10T20:10:17.652Z,36.60
2023-05-10T20:12:51.061Z,36.59
2023-05-10T20:15:20.830Z,36.41
2023-05-10T20:17:49.381Z,36.84
2023-05-10T20:20:18.005Z,36.90
2023-05-10T20:22:46.264Z,36.81
2023-05-10T20:25:14.876Z,37.06
2023-05-10T20:27:44.308Z,37.39
2023-05-10T20:30:13.193Z,37.46
2023-05-10T20:32:41.090Z,37.62
2023-05-10T20:35:09.573Z,37.69
2023-05-10T20:37:38.333Z,38.20
2023-05-10T20:40:08.654Z,38.19
2023-05-10T20:42:36.577Z,38.69
2023-05-10T20:45:07.421Z,39.15
2023-05-10T20:47:35.317Z,39.16
2023-05-10T20:50:03.232Z,39.23
2023-05-10T20:52:31.536Z,39.74
2023-05-10T20:54:59.494Z,40.08
2023-05-10T20:57:27.366Z,40.22
2023-05-10T20:59:59.139Z,40.27
2023-05-10T21:02:31.410Z,40.80
2023-05-10T21:05:00.673Z,40.95
2023-05-10T21:07:28.572Z,41.08
2023-05-10T21:09:56.385Z,41.43
2023-05-10T21:12:24.449Z,41.39
2023-05-10T21:14:52.308Z,41.66
2023-05-10T21:17:20.428Z,42.45
2023-05-10T21:19:50.462Z,42.53
2023-05-10T21:22:18.304Z,43.00
2023-05-10T21:24:46.249Z,43.03
2023-05-10T21:27:14.407Z,43.39
2023-05-10T21:29:42.316Z,43.91
2023-05-10T21:32:10.524Z,44.34
2023-05-10T21:34:38.837Z,44.46
2023-05-10T21:37:08.156Z,44.91
2023-05-10T21:39:36.033Z,44.96
2023-05-10T21:42:04.682Z,44.99
2023-05-10T21:44:32.624Z,45.47
2023-05-10T21:47:00.667Z,45.60
2023-05-10T21:49:28.899Z,46.14
2023-05-10T21:51:56.850Z,46.51
2023-05-10T21:54:26.371Z,46.49
2023-05-10T21:56:56.758Z,46.64
2023-05-10T21:59:24.656Z,46.87
2023-05-10T22:01:53.452Z,46.83
2023-05-10T22:04:21.700Z,47.24
2023-05-10T22:06:50.167Z,47.30
2023-05-10T22:09:20.815Z,47.55
2023-05-10T22:11:50.319Z,47.85
2023-05-10T22:14:18.198Z,47.72
2023-05-10T22:16:46.401Z,47.68
2023-05-10T22:19:14.414Z,48.15
2023-05-10T22:21:42.444Z,47.88
2023-05-10T22:24:10.322Z,48.10
2023-05-10T22:26:38.319Z,48.12
2023-05-10T22:29:07.550Z,48.32
2023-05-10T22:31:36.232Z,48.34
2023-05-10T22:34:04.441Z,48.47
2023-05-10T22:36:32.810Z,48.36
2023-05-10T22:39:01.670Z,48.51
2023-05-10T22:41:29.828Z,48.48
2023-05-10T22:43:57.658Z,48.73
2023-05-10T22:46:30.381Z,48.86
2023-05-10T22:48:59.697Z,48.78
2023-05-10T22:51:28.595Z,48.75
2023-05-10T22:53:56.596Z,48.92
2023-05-10T22:56:27.328Z,48.75
2023-05-10T22:58:56.489Z,49.03
2023-05-10T23:01:26.807Z,48.97
2023-05-10T23:03:58.536Z,49.10
2023-05-10T23:06:28.018Z,48.98
2023-05-10T23:08:57.697Z,49.13
2023-05-10T23:11:25.875Z,49.10
2023-05-10T23:13:53.895Z,48.94
2023-05-10T23:16:22.317Z,49.08
2023-05-10T23:18:51.726Z,49.25
2023-05-10T23:21:23.685Z,49.24
2023-05-10T23:23:52.092Z,49.35
2023-05-10T23:26:20.388Z,49.19
2023-05-10T23:28:48.607Z,49.46
2023-05-10T23:31:16.599Z,49.44
2023-05-10T23:33:44.632Z,49.50
2023-05-10T23:36:12.742Z,49.78
2023-05-10T23:38:42.366Z,49.74
2023-05-10T23:41:10.992Z,49.84
2023-05-10T23:43:39.157Z,49.91
2023-05-10T23:46:08.539Z,50.03
2023-05-10T23:48:36.746Z,50.02
2023-05-10T23:51:07.680Z,50.16
2023-05-10T23:53:35.732Z,50.09
2023-05-10T23:56:05.375Z,50.31
2023-05-10T23:58:33.372Z,50.49
